Data for 06/27/2006

Time Sea-Level Adjusted Pressure Absolute Pressure Temperature Relative Humidity Dew Point   
(mb) (inHg) (mb) (inHg) (C) (F) (%) (C) (F)
00:05 1023 30.21 852 25.16 19.3 66.8 36 4.1 39.3
00:10 1023 30.21 853 25.19 19.5 67 36 4.3 39.7
00:15 1023 30.21 853 25.19 19.4 66.8 37 4.3 39.8
00:20 1023 30.21 853 25.19 19.3 66.8 36 4.1 39.4
00:25 1023 30.21 853 25.19 19.3 66.8 36 4.1 39.4
00:30 1023 30.21 853 25.19 19.3 66.7 36 3.8 38.9
00:35 1023 30.21 853 25.19 19.3 66.7 37 4.3 39.7
00:40 1023 30.21 853 25.19 19.1 66.4 37 4.2 39.5
00:45 1023 30.21 852 25.16 19.1 66.3 37 4 39.2
00:50 1023 30.21 852 25.16 19.1 66.4 36 3.6 38.5
00:55 1023 30.21 852 25.16 19 66.2 36 3.9 38.9
01:00 1023 30.21 852 25.16 19 66.1 35 3.5 38.2
01:05 1023 30.21 852 25.16 19.1 66.3 35 3.5 38.3
01:10 1023 30.21 852 25.16 19 66.2 35 3.4 38.2
01:15 1023 30.21 852 25.16 18.9 66 35 3.3 38
01:20 1023 30.21 852 25.16 18.9 66.1 35 3.4 38.1
01:25 1023 30.21 852 25.16 18.8 65.9 36 3.5 38.2
01:30 1023 30.21 852 25.16 18.7 65.7 36 3.6 38.5
01:35 1023 30.21 852 25.16 18.7 65.7 36 3.6 38.5
01:40 1023 30.21 852 25.16 18.7 65.6 36 3.4 38.1
01:45 1023 30.21 852 25.16 18.7 65.6 36 3.4 38.1
01:50 1023 30.21 852 25.16 18.6 65.5 36 3.4 38.1
01:55 1023 30.21 852 25.16 18.6 65.4 36 3.4 38.1
02:00 1023 30.21 852 25.16 18.5 65.3 37 3.6 38.4
02:05 1023 30.21 852 25.16 18.5 65.2 37 3.6 38.5
02:10 1023 30.21 852 25.16 18.3 65 37 3.7 38.6
02:15 1022 30.18 852 25.16 18.2 64.8 38 3.6 38.6
02:20 1022 30.18 852 25.16 18.2 64.8 37 3.5 38.4
02:25 1022 30.18 852 25.16 18.2 64.7 38 3.7 38.6
02:30 1022 30.18 851 25.13 18.1 64.6 38 3.6 38.5
02:35 1022 30.18 851 25.13 18.1 64.5 37 3.5 38.2
02:40 1022 30.18 851 25.13 18.1 64.5 38 3.5 38.3
02:45 1022 30.18 851 25.13 18 64.3 38 3.5 38.2
02:50 1022 30.18 851 25.13 18 64.4 38 3.4 38.2
02:55 1022 30.18 851 25.13 17.9 64.1 38 3.4 38.1
03:00 1022 30.18 851 25.13 17.9 64.2 38 3.6 38.4
03:05 1022 30.18 851 25.13 17.8 64.1 38 3.5 38.3
03:10 1022 30.18 851 25.13 17.8 64.1 38 3.3 37.9
03:15 1022 30.18 851 25.13 17.9 64.1 37 3.2 37.8
03:20 1022 30.18 851 25.13 17.9 64.2 37 3.2 37.7
03:25 1022 30.18 851 25.13 17.9 64.2 37 3.1 37.5
03:30 1022 30.18 851 25.13 17.9 64.1 37 3.2 37.7
03:35 1022 30.18 851 25.13 17.8 64 37 3.1 37.6
03:40 1022 30.18 851 25.13 17.9 64.1 36 2.6 36.7
03:45 1022 30.18 851 25.13 17.9 64.2 36 2.6 36.7
03:50 1022 30.18 851 25.13 17.9 64.2 35 2.4 36.2
03:55 1022 30.18 851 25.13 17.9 64.2 35 2.5 36.5
04:00 1022 30.18 851 25.13 17.8 64.1 36 2.6 36.7
04:05 1022 30.18 851 25.13 17.8 64 36 2.6 36.7
04:10 1022 30.18 851 25.13 17.7 63.8 37 2.7 36.9
04:15 1022 30.18 851 25.13 17.7 63.8 36 2.5 36.6
04:20 1022 30.18 851 25.13 17.7 63.8 36 2.6 36.6
04:25 1022 30.18 851 25.13 17.6 63.7 36 2.7 36.8
04:30 1022 30.18 851 25.13 17.4 63.4 37 2.7 36.8
04:35 1022 30.18 851 25.13 17.4 63.3 37 2.7 36.8
04:40 1022 30.18 851 25.13 17.4 63.2 36 2.4 36.4
04:45 1022 30.18 851 25.13 17.4 63.3 37 2.6 36.7
04:50 1022 30.18 851 25.13 17.3 63.1 37 2.4 36.4
04:55 1022 30.18 851 25.13 17.3 63.1 37 2.6 36.7
05:00 1022 30.18 852 25.16 17.2 62.9 37 2.5 36.5
05:05 1022 30.18 852 25.16 17.2 62.9 37 2.5 36.5
05:10 1022 30.18 852 25.16 17 62.6 38 2.6 36.7
05:15 1022 30.18 852 25.16 16.8 62.2 39 2.8 37
05:20 1022 30.18 852 25.16 16.8 62.2 39 2.7 36.8
05:25 1022 30.18 852 25.16 16.8 62.2 39 2.7 36.8
05:30 1022 30.18 852 25.16 16.6 62 39 2.8 37.1
05:35 1022 30.18 852 25.16 16.6 61.8 39 2.6 36.7
05:40 1022 30.18 852 25.16 16.7 62 39 2.6 36.8
05:45 1022 30.18 852 25.16 16.6 61.9 39 2.7 36.9
05:50 1022 30.18 852 25.16 16.5 61.8 39 2.7 36.9
05:55 1022 30.18 852 25.16 16.4 61.5 40 2.9 37.2
06:00 1022 30.18 852 25.16 16.4 61.5 40 2.8 37
06:05 1022 30.18 852 25.16 16.4 61.5 40 2.9 37.2
06:10 1022 30.18 852 25.16 16.4 61.5 41 3.1 37.6
06:15 1022 30.18 852 25.16 16.3 61.3 41 3.2 37.8
06:20 1022 30.18 852 25.16 16.2 61.2 41 3.2 37.7
06:25 1022 30.18 852 25.16 16.2 61.2 42 3.4 38
06:30 1022 30.18 852 25.16 16.2 61.2 42 3.3 37.9
06:35 1023 30.21 852 25.16 16.3 61.3 41 3 37.4
06:40 1023 30.21 852 25.16 16.5 61.7 40 3 37.3
06:45 1022 30.18 852 25.16 16.6 61.9 40 3.2 37.8
06:50 1022 30.18 852 25.16 16.6 61.9 40 3.2 37.8
06:55 1022 30.18 852 25.16 16.5 61.8 41 3.4 38.1
07:00 1022 30.18 852 25.16 16.6 61.9 41 3.6 38.5
07:05 1022 30.18 852 25.16 16.6 61.9 42 3.7 38.7
07:10 1022 30.18 852 25.16 16.7 62 42 3.7 38.7
07:15 1022 30.18 852 25.16 16.8 62.3 42 3.8 38.9
07:20 1022 30.18 852 25.16 17 62.6 41 3.8 38.8
07:25 1022 30.18 852 25.16 17.2 63 41 3.9 39
07:30 1022 30.18 852 25.16 17.4 63.2 40 3.9 39
07:35 1022 30.18 852 25.16 17.4 63.4 42 4.4 39.9
07:40 1022 30.18 852 25.16 17.4 63.4 43 4.9 40.9
07:45 1022 30.18 852 25.16 17.5 63.5 43 4.8 40.7
07:50 1022 30.18 851 25.13 17.7 63.8 43 4.9 40.8
07:55 1022 30.18 852 25.16 18 64.4 41 4.8 40.6
08:00 1022 30.18 852 25.16 18.2 64.7 42 5.2 41.3
08:05 1022 30.18 851 25.13 18.3 65 40 4.6 40.3
08:10 1022 30.18 851 25.13 18.7 65.6 38 4.2 39.6
08:15 1022 30.18 851 25.13 18.8 65.9 38 4.4 39.9
08:20 1022 30.18 852 25.16 19.2 66.5 36 3.8 38.9
08:25 1022 30.18 852 25.16 19.2 66.5 36 3.7 38.7
08:30 1022 30.18 852 25.16 19.4 66.9 35 3.9 39
08:35 1022 30.18 852 25.16 19.5 67.2 36 4.2 39.5
08:40 1022 30.18 852 25.16 19.8 67.7 35 4.2 39.5
08:45 1022 30.18 852 25.16 20.1 68.1 35 4.2 39.5
08:50 1022 30.18 852 25.16 20.4 68.8 35 4.5 40.1
08:55 1022 30.18 852 25.16 20.6 69.1 37 5.7 42.2
09:00 1022 30.18 852 25.16 20.1 68.2 39 5.8 42.4
09:05 1022 30.18 851 25.13 20 68 39 5.8 42.5
09:10 1022 30.18 851 25.13 20.3 68.5 37 5.2 41.4
09:15 1022 30.18 851 25.13 20 68.1 37 5.2 41.4
09:20 1022 30.18 851 25.13 20 68 37 5.2 41.3
09:25 1022 30.18 851 25.13 20.2 68.4 38 5.7 42.3
09:30 1022 30.18 851 25.13 20.8 69.5 35 5 41.1
09:35 1022 30.18 851 25.13 21.8 71.2 34 5.4 41.6
09:40 1022 30.18 851 25.13 22.1 71.7 34 5.6 42.1
09:45 1022 30.18 851 25.13 20.9 69.6 36 5.4 41.8
09:50 1022 30.18 851 25.13 21.5 70.7 34 5.2 41.4
09:55 1022 30.18 851 25.13 21.8 71.2 34 5.3 41.6
10:00 1022 30.18 851 25.13 21.4 70.5 34 5.3 41.5
10:05 1022 30.18 851 25.13 21.8 71.2 33 4.9 40.7
10:10 1022 30.18 851 25.13 22.2 72 33 5.6 42.1
10:15 1022 30.18 851 25.13 21.8 71.2 35 5.7 42.2
10:20 1022 30.18 851 25.13 21.7 71 34 5.5 41.9
10:25 1022 30.18 851 25.13 22.4 72.3 32 5.2 41.3
10:30 1022 30.18 851 25.13 23.4 74.1 32 6 42.9
10:35 1022 30.18 851 25.13 23.1 73.6 33 6 42.8
10:40 1022 30.18 851 25.13 23.5 74.3 32 5.9 42.6
10:45 1022 30.18 851 25.13 23.7 74.7 32 6.2 43.2
10:50 1022 30.18 851 25.13 23.3 74 32 5.9 42.7
10:55 1021 30.15 851 25.13 23.1 73.6 33 6.3 43.4
11:00 1021 30.15 851 25.13 23.1 73.6 32 5.9 42.6
11:05 1021 30.15 851 25.13 23.8 74.8 31 5.7 42.3
11:10 1021 30.15 851 25.13 24.5 76.1 31 6.4 43.6
11:15 1021 30.15 851 25.13 24.6 76.3 31 6.4 43.5
11:20 1021 30.15 851 25.13 25.3 77.6 29 6.3 43.3
11:25 1021 30.15 851 25.13 25.2 77.3 29 6.2 43.1
11:30 1021 30.15 850 25.1 25.7 78.3 29 6.5 43.7
11:35 1021 30.15 850 25.1 25.9 78.5 28 6.2 43.2
11:40 1021 30.15 850 25.1 26.2 79.1 28 6.3 43.4
11:45 1021 30.15 850 25.1 25 76.9 30 6.2 43.2
11:50 1021 30.15 850 25.1 25.1 77.3 28 5.7 42.3
11:55 1021 30.15 850 25.1 25.2 77.3 29 6.1 43
12:00 1021 30.15 850 25.1 25.2 77.4 29 6.4 43.5
12:05 1021 30.15 850 25.1 24.6 76.2 30 5.9 42.6
12:10 1021 30.15 850 25.1 25.4 77.6 28 5.7 42.2
12:15 1021 30.15 850 25.1 26.2 79.2 27 5.8 42.4
12:20 1021 30.15 850 25.1 26.6 79.8 25 5.3 41.6
12:25 1021 30.15 850 25.1 26.9 80.4 23 4.6 40.3
12:30 1021 30.15 850 25.1 26.5 79.8 23 4.2 39.6
12:35 1021 30.15 850 25.1 27 80.6 23 4.6 40.4
12:40 1021 30.15 850 25.1 27.4 81.3 23 4.6 40.3
12:45 1021 30.15 850 25.1 27 80.5 23 4.2 39.6
12:50 1021 30.15 850 25.1 28.2 82.7 20 3.3 37.9
12:55 1020 30.12 850 25.1 28.9 83.9 21 4.8 40.7
13:00 1020 30.12 850 25.1 28.5 83.3 21 4.1 39.4
13:05 1020 30.12 850 25.1 28.4 83.1 21 4.4 40
13:10 1021 30.15 850 25.1 29.2 84.5 20 4.5 40.2
13:15 1021 30.15 850 25.1 28.8 83.8 22 5.4 41.8
13:20 1020 30.12 850 25.1 28 82.4 21 4.2 39.6
13:25 1020 30.12 850 25.1 27.7 81.9 20 3.3 37.9
13:30 1020 30.12 850 25.1 27.6 81.6 21 3.7 38.6
13:35 1021 30.15 850 25.1 27.3 81.1 22 3.9 39.1
13:40 1021 30.15 850 25.1 26.2 79.2 26 5.2 41.4
13:45 1021 30.15 850 25.1 25.6 78 26 4.6 40.4
13:50 1021 30.15 850 25.1 25.4 77.8 29 6.3 43.4
13:55 1021 30.15 850 25.1 25.1 77.1 31 6.9 44.5
14:00 1021 30.15 850 25.1 25 76.9 30 6.5 43.7
14:05 1020 30.12 850 25.1 24.7 76.5 34 8.1 46.6
14:10 1020 30.12 850 25.1 24.7 76.5 35 8.4 47.1
14:15 1020 30.12 849 25.07 24.6 76.2 35 8.2 46.7
14:20 1020 30.12 849 25.07 24.5 76 33 7.5 45.5
14:25 1020 30.12 849 25.07 24 75.1 35 7.9 46.1
14:30 1020 30.12 849 25.07 23.4 74.1 37 8 46.4
14:35 1020 30.12 849 25.07 23.2 73.8 37 8.1 46.5
14:40 1020 30.12 849 25.07 23.2 73.7 38 8.4 47
14:45 1020 30.12 849 25.07 22.9 73.2 39 8.3 46.9
14:50 1020 30.12 849 25.07 22.9 73.2 38 8.2 46.8
14:55 1020 30.12 849 25.07 23 73.4 40 8.8 47.9
15:00 1020 30.12 849 25.07 23.3 73.9 37 8 46.3
15:05 1020 30.12 849 25.07 23.6 74.5 32 6 42.8
15:10 1020 30.12 849 25.07 23.9 75.1 32 6.4 43.5
15:15 1020 30.12 849 25.07 23.9 75 32 6.2 43.2
15:20 1020 30.12 849 25.07 24.1 75.3 29 5.4 41.7
15:25 1020 30.12 849 25.07 24.6 76.2 34 7.9 46.2
15:30 1020 30.12 849 25.07 24.7 76.5 34 8.1 46.5
15:35 1020 30.12 849 25.07 25 77 25 4 39.2
15:40 1020 30.12 849 25.07 25.5 77.9 27 5.6 42.1
15:45 1020 30.12 849 25.07 25.6 78.2 31 7.3 45.2
15:50 1020 30.12 849 25.07 25.3 77.6 31 7.4 45.3
15:55 1020 30.12 849 25.07 25.6 78.1 28 6.1 42.9
16:00 1020 30.12 849 25.07 26.2 79.1 27 5.7 42.3
16:05 1020 30.12 849 25.07 26.8 80.3 23 4.3 39.7
16:10 1020 30.12 849 25.07 26.7 80 23 4.4 39.8
16:15 1020 30.12 849 25.07 26.3 79.3 25 5.2 41.4
16:20 1020 30.12 849 25.07 26.2 79.1 25 5 41
16:25 1019 30.09 849 25.07 26.3 79.3 24 4.2 39.6
16:30 1019 30.09 849 25.07 26.1 78.9 24 4.4 39.9
16:35 1019 30.09 849 25.07 26.2 79.2 25 4.9 40.8
16:40 1019 30.09 848 25.04 26.6 79.8 24 4.6 40.3
16:45 1019 30.09 848 25.04 26.6 79.8 24 4.7 40.5
16:50 1019 30.09 848 25.04 26.3 79.3 24 4.2 39.5
16:55 1019 30.09 848 25.04 26.2 79.2 25 4.7 40.4
17:00 1019 30.09 848 25.04 26 78.8 26 5.5 42
17:05 1019 30.09 848 25.04 26 78.7 25 4.7 40.4
17:10 1019 30.09 848 25.04 26 78.8 26 5.5 41.8
17:15 1019 30.09 849 25.07 26 78.8 24 4 39.2
17:20 1019 30.09 849 25.07 25.8 78.4 24 4.1 39.4
17:25 1020 30.12 849 25.07 25.5 77.9 24 4 39.2
17:30 1020 30.12 849 25.07 25.3 77.6 25 3.9 39.1
17:35 1020 30.12 849 25.07 25.2 77.3 25 4 39.3
17:40 1020 30.12 849 25.07 25.2 77.4 25 4.2 39.5
17:45 1020 30.12 849 25.07 25.1 77.2 26 4.7 40.4
17:50 1020 30.12 849 25.07 25.1 77.1 26 4.7 40.4
17:55 1020 30.12 849 25.07 25.1 77.2 27 4.8 40.7
18:00 1020 30.12 849 25.07 25 76.9 26 4.3 39.8
18:05 1020 30.12 849 25.07 25 77 27 4.8 40.6
18:10 1020 30.12 849 25.07 24.9 76.8 27 5 41
18:15 1020 30.12 849 25.07 24.7 76.4 27 4.5 40.1
18:20 1020 30.12 849 25.07 24.7 76.5 29 5.7 42.3
18:25 1020 30.12 849 25.07 24.8 76.6 28 5.3 41.6
18:30 1020 30.12 849 25.07 24.9 76.9 29 5.8 42.5
18:35 1020 30.12 849 25.07 24.8 76.7 29 5.9 42.6
18:40 1020 30.12 849 25.07 24.5 76.2 30 5.9 42.7
18:45 1020 30.12 849 25.07 24.7 76.5 26 4.2 39.6
18:50 1020 30.12 849 25.07 24.8 76.6 27 4.7 40.4
18:55 1020 30.12 849 25.07 24.7 76.5 29 5.6 42.2
19:00 1020 30.12 849 25.07 24.9 76.7 25 4 39.2
19:05 1020 30.12 849 25.07 24.9 76.7 28 5.6 42
19:10 1020 30.12 849 25.07 24.8 76.6 27 5 40.9
19:15 1020 30.12 849 25.07 24.6 76.3 29 5.6 42
19:20 1020 30.12 849 25.07 24.7 76.4 27 4.9 40.8
19:25 1020 30.12 849 25.07 24.7 76.4 28 5.4 41.6
19:30 1020 30.12 849 25.07 24.8 76.6 27 4.8 40.6
19:35 1020 30.12 849 25.07 24.7 76.4 29 5.5 42
19:40 1020 30.12 849 25.07 24.6 76.2 31 6.5 43.7
19:45 1020 30.12 849 25.07 24.6 76.2 27 4.5 40.1
19:50 1020 30.12 849 25.07 24.6 76.3 26 4.2 39.6
19:55 1020 30.12 849 25.07 24.7 76.4 31 6.8 44.2
20:00 1020 30.12 849 25.07 24.3 75.8 34 7.6 45.8
20:05 1020 30.12 849 25.07 24 75.3 36 8.1 46.6
20:10 1020 30.12 849 25.07 23.6 74.4 35 7.6 45.7
20:15 1020 30.12 849 25.07 23.5 74.3 33 6.6 43.8
20:20 1020 30.12 849 25.07 23.5 74.3 32 6 42.9
20:25 1020 30.12 849 25.07 23.5 74.2 35 7.4 45.3
20:30 1020 30.12 849 25.07 23.3 74 33 6.4 43.5
20:35 1020 30.12 849 25.07 23.1 73.6 40 8.9 48.1
20:40 1020 30.12 849 25.07 22.4 72.3 44 9.7 49.4
20:45 1020 30.12 849 25.07 21.9 71.4 48 10.5 50.9
20:50 1020 30.12 849 25.07 21.5 70.6 47 9.9 49.8
20:55 1020 30.12 849 25.07 21.2 70.1 45 9 48.3
21:00 1020 30.12 849 25.07 21.1 70 44 8.6 47.5
21:05 1020 30.12 849 25.07 21.1 70 47 9.5 49
21:10 1020 30.12 849 25.07 21 69.7 42 7.8 46.1
21:15 1020 30.12 849 25.07 20.8 69.5 45 8.5 47.2
21:20 1020 30.12 849 25.07 20.6 69.2 44 8.2 46.7
21:25 1020 30.12 849 25.07 20.5 68.8 45 8.4 47.2
21:30 1020 30.12 849 25.07 20.1 68.3 47 8.6 47.5
21:35 1020 30.12 849 25.07 19.9 67.8 47 8.3 46.9
21:40 1020 30.12 849 25.07 19.6 67.2 47 8 46.4
21:45 1020 30.12 849 25.07 18.9 66 50 8.3 46.9
21:50 1020 30.12 849 25.07 18.2 64.7 51 8 46.4
21:55 1020 30.12 849 25.07 17.9 64.1 51 7.6 45.8
22:00 1020 30.12 849 25.07 17.9 64.1 50 7.4 45.4
22:05 1020 30.12 849 25.07 17.8 64.1 49 7.1 44.8
22:10 1020 30.12 849 25.07 17.8 64 50 7.2 45
22:15 1020 30.12 849 25.07 17.8 64 50 7.2 44.9
22:20 1020 30.12 849 25.07 17.7 63.9 50 7.3 45.1
22:25 1020 30.12 849 25.07 17.8 64 50 7.2 44.9
22:30 1020 30.12 849 25.07 17.9 64.2 48 6.8 44.2
22:35 1020 30.12 850 25.1 18 64.3 47 6.7 44.1
22:40 1020 30.12 850 25.1 18 64.3 50 7.4 45.4
22:45 1020 30.12 850 25.1 18.2 64.7 46 6.6 43.9
22:50 1020 30.12 849 25.07 18.2 64.8 46 6.4 43.5
22:55 1020 30.12 849 25.07 18.3 64.9 46 6.7 44.1
23:00 1020 30.12 850 25.1 18.3 65 44 6.1 43
23:05 1020 30.12 849 25.07 18.3 64.9 45 6.2 43.2
23:10 1020 30.12 849 25.07 18.1 64.5 46 6.3 43.3
23:15 1020 30.12 849 25.07 17.7 63.9 46 6 42.8
23:20 1020 30.12 849 25.07 18 64.4 45 6 42.8
23:25 1020 30.12 849 25.07 18 64.3 46 6.4 43.5
23:30 1020 30.12 849 25.07 17.8 64 46 6 42.8
23:35 1020 30.12 849 25.07 17.6 63.6 47 6.2 43.2
23:40 1020 30.12 849 25.07 17.6 63.7 45 5.7 42.3
23:45 1020 30.12 849 25.07 17.8 64.1 47 6.3 43.4
23:50 1020 30.12 849 25.07 17.6 63.7 45 5.8 42.4
23:55 1020 30.12 849 25.07 17.6 63.6 52 7.8 46.1
24:00 1020 30.12 849 25.07 17.5 63.4 46 5.8 42.4